createdAt,value
2022-11-29T00:00:48.753Z,10.88
2022-11-29T00:03:34.051Z,10.60
2022-11-29T00:06:26.500Z,11.18
2022-11-29T00:09:12.911Z,10.98
2022-11-29T00:12:12.733Z,11.25
2022-11-29T00:14:57.380Z,9.82
2022-11-29T00:20:26.829Z,10.90
2022-11-29T00:23:11.667Z,11.25
2022-11-29T00:26:06.146Z,11.45
2022-11-29T00:28:51.114Z,10.90
2022-11-29T00:34:20.299Z,10.93
2022-11-29T00:37:05.225Z,10.88
2022-11-29T00:39:50.146Z,10.25
2022-11-29T00:42:34.715Z,11.38
2022-11-29T00:45:19.551Z,9.98
2022-11-29T00:48:04.594Z,11.32
2022-11-29T00:53:34.883Z,10.07
2022-11-29T00:56:19.682Z,11.50
2022-11-29T00:59:04.362Z,11.63
2022-11-29T01:04:34.269Z,9.40
2022-11-29T01:07:19.456Z,10.32
2022-11-29T01:10:04.805Z,10.20
2022-11-29T01:12:49.759Z,9.52
2022-11-29T01:15:35.484Z,10.95
2022-11-29T01:18:20.360Z,9.65
2022-11-29T01:21:11.697Z,10.40
2022-11-29T01:23:56.890Z,10.00
2022-11-29T01:29:26.154Z,9.80
2022-11-29T01:32:12.111Z,9.35
2022-11-29T01:34:57.052Z,9.65
2022-11-29T01:37:41.960Z,11.20
2022-11-29T01:43:20.404Z,9.35
2022-11-29T01:46:05.297Z,9.30
2022-11-29T01:48:57.286Z,8.90
2022-11-29T01:51:55.365Z,9.20
2022-11-29T01:54:47.526Z,9.68
2022-11-29T01:57:34.623Z,9.40
2022-11-29T02:00:19.884Z,9.27
2022-11-29T02:05:56.596Z,9.25
2022-11-29T02:08:42.898Z,9.18
2022-11-29T02:12:02.094Z,8.60
2022-11-29T02:15:04.594Z,8.02
2022-11-29T02:18:03.686Z,8.65
2022-11-29T02:21:06.810Z,8.70
2022-11-29T02:24:28.908Z,8.90
2022-11-29T02:27:16.672Z,9.32
2022-11-29T02:30:16.394Z,9.57
2022-11-29T02:33:22.128Z,8.95
2022-11-29T02:36:29.689Z,9.02
2022-11-29T02:39:41.957Z,7.68
2022-11-29T02:42:29.395Z,7.35
2022-11-29T02:45:41.033Z,8.15
2022-11-29T02:48:35.478Z,7.20
2022-11-29T02:51:32.193Z,7.82
2022-11-29T02:54:41.436Z,7.10
2022-11-29T02:57:56.473Z,7.35
2022-11-29T03:00:56.583Z,7.28
2022-11-29T03:03:54.776Z,8.02
2022-11-29T03:06:57.914Z,7.75
2022-11-29T03:10:32.106Z,8.35
2022-11-29T03:13:42.484Z,6.93
2022-11-29T03:16:50.799Z,6.72
2022-11-29T03:19:51.073Z,6.88
2022-11-29T03:23:08.026Z,7.10
2022-11-29T03:25:55.928Z,7.22
2022-11-29T03:28:49.431Z,7.00
2022-11-29T03:31:38.597Z,7.40
2022-11-29T03:34:32.095Z,6.15
2022-11-29T03:37:21.991Z,6.82
2022-11-29T03:40:09.013Z,5.90
2022-11-29T03:43:00.581Z,5.88
2022-11-29T03:46:02.596Z,6.65
2022-11-29T03:48:55.963Z,6.45
2022-11-29T03:51:51.442Z,6.85
2022-11-29T03:54:48.209Z,5.97
2022-11-29T03:58:04.813Z,5.70
2022-11-29T04:00:49.433Z,5.80
2022-11-29T04:03:55.799Z,5.40
2022-11-29T04:06:50.091Z,6.25
2022-11-29T04:09:59.663Z,6.45
2022-11-29T04:13:15.088Z,6.55
2022-11-29T04:16:21.443Z,6.00
2022-11-29T04:19:22.519Z,6.65
2022-11-29T04:22:26.107Z,5.85
2022-11-29T04:25:35.186Z,5.93
2022-11-29T04:28:57.107Z,5.57
2022-11-29T04:32:11.573Z,5.45
2022-11-29T04:35:28.729Z,5.45
2022-11-29T04:38:44.755Z,5.65
2022-11-29T04:42:06.123Z,5.18
2022-11-29T04:45:04.207Z,5.07
2022-11-29T04:48:14.861Z,5.55
2022-11-29T04:51:26.627Z,5.50
2022-11-29T04:54:29.878Z,5.10
2022-11-29T04:57:34.335Z,4.97
2022-11-29T05:00:22.105Z,5.55
2022-11-29T05:03:15.879Z,5.85
2022-11-29T05:06:44.372Z,5.30
2022-11-29T05:09:52.426Z,4.97
2022-11-29T05:13:15.577Z,5.97
2022-11-29T05:16:42.583Z,6.05
2022-11-29T05:20:18.284Z,6.20
2022-11-29T05:23:27.392Z,5.35
2022-11-29T05:26:27.221Z,6.00
2022-11-29T06:54:40.860Z,8.27
2022-11-29T06:57:44.065Z,9.43
2022-11-29T07:00:58.558Z,8.63
2022-11-29T07:04:12.201Z,8.68
2022-11-29T07:07:35.547Z,9.10
2022-11-29T07:13:30.246Z,8.68
2022-11-29T07:16:45.417Z,8.73
2022-11-29T07:19:50.720Z,8.65
2022-11-29T07:23:25.356Z,7.82
2022-11-29T07:26:59.719Z,6.55
2022-11-29T07:30:05.667Z,7.65
2022-11-29T07:33:00.336Z,10.23
2022-11-29T07:36:19.920Z,12.15
2022-11-29T07:40:05.278Z,12.38
2022-11-29T07:43:35.923Z,9.43
2022-11-29T07:46:37.023Z,7.65
2022-11-29T07:49:42.514Z,6.63
2022-11-29T07:52:39.269Z,6.38
2022-11-29T07:55:49.950Z,6.88
2022-11-29T07:58:41.586Z,6.75
2022-11-29T08:01:44.524Z,7.20
2022-11-29T08:04:45.750Z,6.43
2022-11-29T08:07:49.813Z,6.47
2022-11-29T08:10:44.033Z,9.85
2022-11-29T08:13:40.757Z,12.63
2022-11-29T08:16:34.159Z,9.93
2022-11-29T08:19:18.811Z,10.90
2022-11-29T08:24:52.208Z,7.25
2022-11-29T08:30:37.387Z,5.97
2022-11-29T08:33:22.401Z,7.15
2022-11-29T08:36:18.473Z,7.35
2022-11-29T08:39:29.632Z,5.65
2022-11-29T08:43:10.821Z,5.72
2022-11-29T08:47:03.889Z,6.35
2022-11-29T08:50:30.228Z,5.45
2022-11-29T08:53:45.545Z,7.03
2022-11-29T09:04:15.300Z,10.18
2022-11-29T09:07:02.306Z,11.23
2022-11-29T09:09:47.770Z,11.13
2022-11-29T09:13:06.526Z,10.35
2022-11-29T09:16:21.960Z,10.82
2022-11-29T09:19:54.787Z,10.38
2022-11-29T09:22:45.547Z,8.45
2022-11-29T09:25:33.515Z,10.15
2022-11-29T09:28:18.483Z,10.07
2022-11-29T09:33:49.598Z,8.35
2022-11-29T09:36:34.613Z,7.70
2022-11-29T09:39:45.201Z,8.10
2022-11-29T09:43:06.384Z,7.20
2022-11-29T09:46:02.363Z,6.63
2022-11-29T09:53:01.708Z,7.20
2022-11-29T09:56:00.771Z,13.75
2022-11-29T09:58:57.051Z,15.02
2022-11-29T10:01:58.118Z,12.73
2022-11-29T10:04:52.558Z,10.48
2022-11-29T10:07:47.329Z,10.00
2022-11-29T10:11:05.780Z,9.30
2022-11-29T10:13:59.192Z,11.95
2022-11-29T10:16:50.459Z,9.82
2022-11-29T10:19:50.314Z,8.52
2022-11-29T10:23:01.325Z,8.75
2022-11-29T10:25:54.968Z,7.85
2022-11-29T10:28:50.887Z,7.85
2022-11-29T10:31:42.575Z,7.25
2022-11-29T10:34:30.419Z,6.90
2022-11-29T10:37:35.371Z,6.53
2022-11-29T10:41:04.584Z,6.63
2022-11-29T10:44:48.890Z,6.45
2022-11-29T10:54:59.445Z,7.15
2022-11-29T10:58:09.134Z,12.60
2022-11-29T11:01:16.453Z,7.03
2022-11-29T11:04:32.408Z,8.50
2022-11-29T11:07:34.413Z,8.32
2022-11-29T11:10:28.466Z,7.15
2022-11-29T11:13:35.602Z,7.05
2022-11-29T11:16:37.801Z,9.85
2022-11-29T11:19:36.472Z,8.48
2022-11-29T11:22:39.254Z,8.38
2022-11-29T11:25:37.100Z,7.75
2022-11-29T11:28:28.360Z,6.22
2022-11-29T11:34:34.754Z,7.20
2022-11-29T11:37:29.897Z,7.32
2022-11-29T11:40:33.888Z,6.78
2022-11-29T11:43:21.215Z,8.20
2022-11-29T11:46:08.123Z,5.97
2022-11-29T11:48:53.455Z,6.35
2022-11-29T11:51:42.266Z,5.03
2022-11-29T11:54:28.839Z,5.57
2022-11-29T11:57:17.740Z,5.47
2022-11-29T12:00:06.998Z,9.23
2022-11-29T12:03:58.525Z,13.40
2022-11-29T12:06:51.403Z,9.00
2022-11-29T12:09:42.528Z,7.93
2022-11-29T12:12:40.732Z,7.90
2022-11-29T12:15:33.892Z,7.40
2022-11-29T12:18:41.671Z,5.53
2022-11-29T12:21:32.620Z,5.57
2022-11-29T12:24:40.058Z,5.38
2022-11-29T12:27:34.393Z,5.25
2022-11-29T12:30:25.530Z,5.43
2022-11-29T12:33:29.771Z,6.38
2022-11-29T12:36:46.915Z,5.60
2022-11-29T12:39:50.309Z,6.28
2022-11-29T12:42:59.190Z,6.95
2022-11-29T12:45:45.057Z,8.82
2022-11-29T12:48:39.641Z,7.72
2022-11-29T12:51:42.786Z,8.85
2022-11-29T12:54:42.495Z,7.50
2022-11-29T12:57:39.202Z,6.43
2022-11-29T13:00:28.493Z,6.00
2022-11-29T13:03:26.873Z,6.00
2022-11-29T13:06:47.071Z,6.07
2022-11-29T13:09:47.516Z,6.50
2022-11-29T13:12:41.341Z,7.72
2022-11-29T13:15:46.075Z,7.95
2022-11-29T13:18:44.671Z,6.40
2022-11-29T13:21:44.133Z,6.22
2022-11-29T13:24:50.542Z,6.45
2022-11-29T13:27:41.989Z,6.15
2022-11-29T13:30:27.135Z,5.63
2022-11-29T13:33:16.379Z,6.60
2022-11-29T13:36:38.191Z,7.53
2022-11-29T13:39:44.526Z,7.72
2022-11-29T13:42:57.260Z,7.80
2022-11-29T13:46:26.676Z,12.80
2022-11-29T13:52:38.836Z,9.68
2022-11-29T13:55:30.701Z,9.93
2022-11-29T13:58:33.334Z,9.43
2022-11-29T14:01:18.228Z,6.53
2022-11-29T14:04:06.784Z,6.38
2022-11-29T14:07:02.645Z,6.68
2022-11-29T14:10:06.248Z,6.80
2022-11-29T14:12:55.233Z,6.90
2022-11-29T14:15:41.454Z,6.93
2022-11-29T14:18:41.254Z,7.30
2022-11-29T14:21:45.917Z,8.00
2022-11-29T14:24:36.550Z,9.63
2022-11-29T14:27:21.459Z,12.25
2022-11-29T14:33:28.288Z,9.38
2022-11-29T14:36:54.245Z,8.93
2022-11-29T14:39:46.363Z,7.68
2022-11-29T14:42:31.347Z,9.52
2022-11-29T14:48:31.158Z,8.18
2022-11-29T14:51:18.789Z,7.90
2022-11-29T14:54:15.347Z,8.40
2022-11-29T14:57:38.546Z,8.05
2022-11-29T15:00:29.422Z,8.52
2022-11-29T15:03:20.850Z,8.73
2022-11-29T15:06:26.232Z,8.05
2022-11-29T15:09:20.315Z,8.23
2022-11-29T15:12:13.848Z,9.20
2022-11-29T15:15:35.716Z,8.70
2022-11-29T15:19:05.201Z,7.88
2022-11-29T15:22:17.474Z,7.85
2022-11-29T15:25:11.529Z,8.70
2022-11-29T15:27:58.456Z,8.75
2022-11-29T15:30:43.556Z,8.50
2022-11-29T15:33:28.919Z,8.63
2022-11-29T15:36:23.572Z,8.73
2022-11-29T15:39:24.794Z,9.80
2022-11-29T15:42:13.041Z,9.45
2022-11-29T15:44:57.956Z,10.07
2022-11-29T15:47:42.843Z,9.93
2022-11-29T15:50:33.145Z,9.32
2022-11-29T15:54:11.646Z,11.35
2022-11-29T15:57:13.126Z,10.98
2022-11-29T16:00:01.658Z,10.75
2022-11-29T16:02:57.518Z,10.20
2022-11-29T16:05:42.612Z,9.20
2022-11-29T16:08:33.559Z,8.90
2022-11-29T16:11:22.907Z,8.02
2022-11-29T16:14:10.539Z,8.43
2022-11-29T16:17:00.033Z,8.38
2022-11-29T16:19:46.306Z,7.85
2022-11-29T16:22:31.846Z,9.35
2022-11-29T16:25:19.779Z,8.07
2022-11-29T16:28:05.379Z,9.23
2022-11-29T16:30:50.466Z,8.63
2022-11-29T16:33:37.672Z,9.65
2022-11-29T16:36:25.949Z,7.97
2022-11-29T16:39:20.082Z,8.32
2022-11-29T16:42:24.650Z,8.57
2022-11-29T16:45:29.169Z,8.32
2022-11-29T16:48:29.030Z,8.63
2022-11-29T16:51:14.515Z,8.60
2022-11-29T16:54:45.051Z,8.13
2022-11-29T16:57:31.190Z,8.13
2022-11-29T17:00:31.934Z,9.13
2022-11-29T17:03:18.479Z,8.23
2022-11-29T17:06:03.161Z,8.10
2022-11-29T17:08:53.774Z,8.52
2022-11-29T17:11:38.400Z,8.57
2022-11-29T17:17:13.806Z,7.28
2022-11-29T17:19:58.317Z,7.38
2022-11-29T17:22:43.275Z,8.32
2022-11-29T17:25:28.422Z,7.43
2022-11-29T17:30:57.853Z,8.30
2022-11-29T17:33:43.290Z,9.25
2022-11-29T17:39:14.885Z,8.27
2022-11-29T17:41:59.478Z,8.32
2022-11-29T17:44:44.559Z,8.40
2022-11-29T17:47:29.460Z,8.20
2022-11-29T17:52:58.913Z,9.23
2022-11-29T17:55:43.302Z,8.82
2022-11-29T17:58:27.962Z,9.05
2022-11-29T18:01:19.362Z,8.80
2022-11-29T18:04:06.140Z,8.77
2022-11-29T18:06:50.996Z,8.15
2022-11-29T18:09:35.910Z,8.23
2022-11-29T18:15:06.865Z,8.55
2022-11-29T18:20:35.896Z,8.98
2022-11-29T18:23:20.166Z,9.23
2022-11-29T18:26:12.228Z,9.15
2022-11-29T18:28:58.317Z,9.15
2022-11-29T18:31:44.495Z,9.65
2022-11-29T18:34:29.461Z,10.57
2022-11-29T18:40:18.587Z,9.43
2022-11-29T18:43:03.636Z,10.23
2022-11-29T18:45:48.674Z,10.85
2022-11-29T18:48:33.564Z,10.63
2022-11-29T18:51:19.927Z,10.27
2022-11-29T18:54:05.665Z,11.38
2022-11-29T18:56:51.129Z,9.95
2022-11-29T18:59:35.882Z,10.57
2022-11-29T19:02:21.046Z,10.40
2022-11-29T19:07:50.600Z,10.90
2022-11-29T19:13:21.455Z,10.00
2022-11-29T19:18:59.696Z,10.27
2022-11-29T19:21:44.514Z,10.40
2022-11-29T19:27:14.011Z,10.32
2022-11-29T19:32:43.516Z,10.85
2022-11-29T19:38:14.790Z,9.80
2022-11-29T19:43:44.658Z,11.00
2022-11-29T19:46:41.136Z,11.00
2022-11-29T19:49:25.906Z,11.13
2022-11-29T19:52:10.737Z,12.15
2022-11-29T19:54:57.513Z,11.90
2022-11-29T19:57:42.391Z,11.70
2022-11-29T20:00:27.585Z,13.43
2022-11-29T20:03:12.599Z,13.60
2022-11-29T20:05:57.360Z,13.15
2022-11-29T20:08:43.419Z,12.40
2022-11-29T20:11:28.422Z,11.32
2022-11-29T20:16:58.871Z,12.98
2022-11-29T20:19:44.073Z,12.45
2022-11-29T20:22:29.178Z,12.25
2022-11-29T20:25:14.034Z,11.52
2022-11-29T20:27:59.184Z,13.25
2022-11-29T20:30:44.018Z,12.05
2022-11-29T20:33:28.652Z,12.05
2022-11-29T20:39:28.261Z,12.13
2022-11-29T20:42:28.598Z,13.65
2022-11-29T20:45:15.225Z,15.48
2022-11-29T20:48:11.420Z,17.67
2022-11-29T20:50:59.255Z,15.43
2022-11-29T20:53:45.583Z,15.10
2022-11-29T20:56:30.192Z,12.40
2022-11-29T20:59:14.698Z,12.60
2022-11-29T21:04:45.534Z,13.43
2022-11-29T21:07:30.647Z,15.77
2022-11-29T21:10:15.726Z,17.27
2022-11-29T21:15:46.071Z,10.57
2022-11-29T21:18:32.013Z,10.88
2022-11-29T21:21:52.393Z,11.30
2022-11-29T21:24:52.368Z,10.52
2022-11-29T21:27:37.381Z,11.05
2022-11-29T21:33:08.916Z,10.70
2022-11-29T21:35:57.519Z,10.65
2022-11-29T21:38:42.358Z,12.60
2022-11-29T21:41:27.243Z,13.63
2022-11-29T21:46:56.898Z,10.07
2022-11-29T21:49:41.972Z,10.98
2022-11-29T21:52:26.698Z,10.18
2022-11-29T21:55:11.538Z,10.70
2022-11-29T21:57:56.327Z,10.75
2022-11-29T22:00:42.370Z,9.25
2022-11-29T22:03:27.462Z,9.75
2022-11-29T22:08:59.364Z,9.20
2022-11-29T22:11:43.991Z,9.35
2022-11-29T22:17:13.377Z,8.93
2022-11-29T22:19:58.382Z,8.98
2022-11-29T22:25:27.729Z,8.05
2022-11-29T22:31:08.413Z,8.32
2022-11-29T22:33:54.524Z,8.50
2022-11-29T22:36:40.180Z,7.90
2022-11-29T22:39:25.370Z,8.50
2022-11-29T22:42:10.251Z,8.82
2022-11-29T22:47:39.615Z,7.95
2022-11-29T22:50:24.958Z,8.35
2022-11-29T22:53:09.620Z,7.38
2022-11-29T22:58:45.953Z,6.97
2022-11-29T23:04:16.652Z,6.35
2022-11-29T23:07:01.245Z,7.63
2022-11-29T23:12:30.644Z,6.95
2022-11-29T23:18:00.253Z,7.35
2022-11-29T23:20:45.126Z,7.20
2022-11-29T23:23:30.570Z,7.68
2022-11-29T23:26:24.876Z,7.40
2022-11-29T23:29:12.422Z,7.82
2022-11-29T23:31:57.057Z,7.45
2022-11-29T23:34:41.916Z,8.57
2022-11-29T23:37:26.480Z,7.82
2022-11-29T23:42:56.368Z,7.00
2022-11-29T23:48:26.571Z,7.70
2022-11-29T23:51:12.539Z,7.93
2022-11-29T23:53:57.513Z,7.97
2022-11-29T23:56:42.340Z,8.05
2022-11-29T23:59:27.398Z,9.15
